sensor_id;sensor_type;location;lat;lon;timestamp;pressure;altitude;pressure_sealevel;temperature;humidity
72055;BME280;59936;51.490;5.436;2022-10-10T00:00:25;101203.03;;;6.65;100.00
72055;BME280;59936;51.490;5.436;2022-10-10T00:01:24;101207.38;;;6.63;100.00
72055;BME280;59936;51.490;5.436;2022-10-10T00:02:23;101205.69;;;6.61;100.00
72055;BME280;59936;51.490;5.436;2022-10-10T00:03:21;101204.84;;;6.59;100.00
72055;BME280;59936;51.490;5.436;2022-10-10T00:04:18;101206.59;;;6.60;100.00
72055;BME280;59936;51.490;5.436;2022-10-10T00:05:15;101209.22;;;6.58;100.00
72055;BME280;59936;51.490;5.436;2022-10-10T00:06:14;101204.94;;;6.55;100.00
72055;BME280;59936;51.490;5.436;2022-10-10T00:07:12;101205.84;;;6.53;100.00
72055;BME280;59936;51.490;5.436;2022-10-10T00:08:09;101193.75;;;6.52;100.00
72055;BME280;59936;51.490;5.436;2022-10-10T00:09:07;101196.38;;;6.50;100.00
72055;BME280;59936;51.490;5.436;2022-10-10T00:10:04;101198.13;;;6.50;100.00
72055;BME280;59936;51.490;5.436;2022-10-10T00:11:04;101198.13;;;6.50;100.00
72055;BME280;59936;51.490;5.436;2022-10-10T00:12:02;101200.75;;;6.48;100.00
72055;BME280;59936;51.490;5.436;2022-10-10T00:13:00;101199.06;;;6.47;100.00
72055;BME280;59936;51.490;5.436;2022-10-10T00:13:57;101193.91;;;6.46;100.00
72055;BME280;59936;51.490;5.436;2022-10-10T00:14:55;101195.53;;;6.51;100.00
72055;BME280;59936;51.490;5.436;2022-10-10T00:15:52;101193.91;;;6.46;100.00
72055;BME280;59936;51.490;5.436;2022-10-10T00:16:50;101191.34;;;6.44;100.00
72055;BME280;59936;51.490;5.436;2022-10-10T00:17:47;101191.38;;;6.41;100.00
72055;BME280;59936;51.490;5.436;2022-10-10T00:18:45;101197.44;;;6.41;100.00
72055;BME280;59936;51.490;5.436;2022-10-10T00:19:42;101197.47;;;6.40;100.00
72055;BME280;59936;51.490;5.436;2022-10-10T00:20:40;101189.75;;;6.37;100.00
72055;BME280;59936;51.490;5.436;2022-10-10T00:21:37;101192.31;;;6.38;100.00
72055;BME280;59936;51.490;5.436;2022-10-10T00:22:35;101199.25;;;6.36;100.00
72055;BME280;59936;51.490;5.436;2022-10-10T00:23:32;101189.78;;;6.34;100.00
72055;BME280;59936;51.490;5.436;2022-10-10T00:24:29;101188.13;;;6.31;100.00
72055;BME280;59936;51.490;5.436;2022-10-10T00:25:27;101182.06;;;6.30;100.00
72055;BME280;59936;51.490;5.436;2022-10-10T00:26:25;101194.25;;;6.27;100.00
72055;BME280;59936;51.490;5.436;2022-10-10T00:27:22;101195.94;;;6.28;100.00
72055;BME280;59936;51.490;5.436;2022-10-10T00:28:20;101194.25;;;6.27;100.00
72055;BME280;59936;51.490;5.436;2022-10-10T00:29:17;101196.84;;;6.25;100.00
72055;BME280;59936;51.490;5.436;2022-10-10T00:30:15;101185.63;;;6.25;100.00
72055;BME280;59936;51.490;5.436;2022-10-10T00:31:12;101189.13;;;6.24;100.00
72055;BME280;59936;51.490;5.436;2022-10-10T00:32:10;101190.91;;;6.22;100.00
72055;BME280;59936;51.490;5.436;2022-10-10T00:33:08;101189.19;;;6.19;100.00
72055;BME280;59936;51.490;5.436;2022-10-10T00:34:05;101190.91;;;6.20;100.00
72055;BME280;59936;51.490;5.436;2022-10-10T00:35:04;101190.06;;;6.20;100.00
72055;BME280;59936;51.490;5.436;2022-10-10T00:36:02;101181.44;;;6.17;100.00
72055;BME280;59936;51.490;5.436;2022-10-10T00:37:01;101196.19;;;6.15;100.00
72055;BME280;59936;51.490;5.436;2022-10-10T00:37:58;101186.63;;;6.17;100.00
72055;BME280;59936;51.490;5.436;2022-10-10T00:38:55;101185.81;;;6.15;100.00
72055;BME280;59936;51.490;5.436;2022-10-10T00:39:53;101182.38;;;6.13;100.00
72055;BME280;59936;51.490;5.436;2022-10-10T00:40:52;101180.69;;;6.12;100.00
72055;BME280;59936;51.490;5.436;2022-10-10T00:41:51;101179.78;;;6.13;100.00
72055;BME280;59936;51.490;5.436;2022-10-10T00:42:49;101188.41;;;6.15;100.00
72055;BME280;59936;51.490;5.436;2022-10-10T00:44:10;101177.16;;;6.16;100.00
72055;BME280;59936;51.490;5.436;2022-10-10T00:45:30;101180.72;;;6.09;100.00
72055;BME280;59936;51.490;5.436;2022-10-10T00:46:38;101177.38;;;6.04;100.00
72055;BME280;59936;51.490;5.436;2022-10-10T00:47:36;101177.38;;;6.04;100.00
72055;BME280;59936;51.490;5.436;2022-10-10T00:48:37;101173.91;;;6.03;100.00
72055;BME280;59936;51.490;5.436;2022-10-10T00:49:40;101185.06;;;6.10;100.00
72055;BME280;59936;51.490;5.436;2022-10-10T00:50:50;101173.84;;;6.08;100.00
72055;BME280;59936;51.490;5.436;2022-10-10T00:51:55;101174.78;;;6.04;100.00
72055;BME280;59936;51.490;5.436;2022-10-10T00:52:55;101173.91;;;6.05;100.00
72055;BME280;59936;51.490;5.436;2022-10-10T00:53:57;101172.19;;;6.04;100.00
72055;BME280;59936;51.490;5.436;2022-10-10T00:55:02;101170.47;;;6.01;100.00
72055;BME280;59936;51.490;5.436;2022-10-10T00:56:00;101168.81;;;5.99;100.00
72055;BME280;59936;51.490;5.436;2022-10-10T00:57:09;101164.41;;;6.02;100.00
72055;BME280;59936;51.490;5.436;2022-10-10T00:58:11;101174.81;;;6.01;100.00
72055;BME280;59936;51.490;5.436;2022-10-10T00:59:10;101173.16;;;5.95;100.00
72055;BME280;59936;51.490;5.436;2022-10-10T01:00:09;101170.59;;;5.93;100.00
72055;BME280;59936;51.490;5.436;2022-10-10T01:01:07;101167.16;;;5.95;100.00
72055;BME280;59936;51.490;5.436;2022-10-10T01:02:05;101169.72;;;5.96;100.00
72055;BME280;59936;51.490;5.436;2022-10-10T01:03:03;101172.34;;;5.95;100.00
72055;BME280;59936;51.490;5.436;2022-10-10T01:04:01;101173.16;;;5.97;100.00
72055;BME280;59936;51.490;5.436;2022-10-10T01:04:59;101162.91;;;5.90;100.00
72055;BME280;59936;51.490;5.436;2022-10-10T01:05:57;101169.78;;;5.93;100.00
72055;BME280;59936;51.490;5.436;2022-10-10T01:06:54;101165.41;;;5.93;100.00
72055;BME280;59936;51.490;5.436;2022-10-10T01:07:53;101160.25;;;5.93;100.00
72055;BME280;59936;51.490;5.436;2022-10-10T01:08:51;101158.50;;;5.94;100.00
72055;BME280;59936;51.490;5.436;2022-10-10T01:09:51;101162.84;;;5.93;100.00
72055;BME280;59936;51.490;5.436;2022-10-10T01:11:12;101156.88;;;5.90;100.00
72055;BME280;59936;51.490;5.436;2022-10-10T01:16:56;101155.31;;;5.78;100.00
72055;BME280;59936;51.490;5.436;2022-10-10T01:20:16;101152.84;;;5.73;100.00
72055;BME280;59936;51.490;5.436;2022-10-10T01:21:48;101153.69;;;5.74;100.00
72055;BME280;59936;51.490;5.436;2022-10-10T01:24:48;101155.31;;;5.78;100.00
72055;BME280;59936;51.490;5.436;2022-10-10T01:28:44;101153.34;;;5.92;100.00
72055;BME280;59936;51.490;5.436;2022-10-10T01:30:18;101153.59;;;5.80;100.00
72055;BME280;59936;51.490;5.436;2022-10-10T01:31:21;101154.44;;;5.82;100.00
72055;BME280;59936;51.490;5.436;2022-10-10T01:32:38;101154.38;;;5.84;100.00
72055;BME280;59936;51.490;5.436;2022-10-10T01:34:07;101150.97;;;5.82;100.00
72055;BME280;59936;51.490;5.436;2022-10-10T01:36:31;101150.41;;;6.16;100.00
72055;BME280;59936;51.490;5.436;2022-10-10T01:37:46;101146.28;;;6.01;100.00
72055;BME280;59936;51.490;5.436;2022-10-10T01:41:42;101135.19;;;5.96;100.00
72055;BME280;59936;51.490;5.436;2022-10-10T01:43:05;101142.16;;;5.92;100.00
72055;BME280;59936;51.490;5.436;2022-10-10T01:44:04;101141.97;;;6.04;100.00
72055;BME280;59936;51.490;5.436;2022-10-10T01:45:03;101137.66;;;6.02;100.00
72055;BME280;59936;51.490;5.436;2022-10-10T01:46:13;101140.19;;;6.07;100.00
72055;BME280;59936;51.490;5.436;2022-10-10T01:47:13;101139.25;;;6.11;100.00
72055;BME280;59936;51.490;5.436;2022-10-10T01:48:11;101143.38;;;6.21;100.00
72055;BME280;59936;51.490;5.436;2022-10-10T01:49:09;101146.03;;;6.18;100.00
72055;BME280;59936;51.490;5.436;2022-10-10T01:50:11;101144.25;;;6.22;100.00
72055;BME280;59936;51.490;5.436;2022-10-10T01:51:39;101142.47;;;6.24;100.00
72055;BME280;59936;51.490;5.436;2022-10-10T01:53:01;101137.16;;;6.30;100.00
72055;BME280;59936;51.490;5.436;2022-10-10T01:56:13;101140.50;;;6.35;100.00
72055;BME280;59936;51.490;5.436;2022-10-10T02:00:11;101133.53;;;6.37;100.00
72055;BME280;59936;51.490;5.436;2022-10-10T02:01:35;101137.06;;;6.35;100.00
72055;BME280;59936;51.490;5.436;2022-10-10T02:04:05;101130.28;;;6.27;100.00
72055;BME280;59936;51.490;5.436;2022-10-10T02:07:30;101128.63;;;6.23;100.00
72055;BME280;59936;51.490;5.436;2022-10-10T02:08:44;101132.78;;;6.32;100.00
72055;BME280;59936;51.490;5.436;2022-10-10T02:09:48;101128.31;;;6.39;100.00
72055;BME280;59936;51.490;5.436;2022-10-10T02:10:57;101122.19;;;6.43;100.00
72055;BME280;59936;51.490;5.436;2022-10-10T02:11:57;101132.50;;;6.46;100.00
72055;BME280;59936;51.490;5.436;2022-10-10T02:12:58;101120.09;;;6.62;100.00
72055;BME280;59936;51.490;5.436;2022-10-10T02:14:09;101124.16;;;6.73;100.00
72055;BME280;59936;51.490;5.436;2022-10-10T02:15:14;101125.97;;;6.70;100.00
72055;BME280;59936;51.490;5.436;2022-10-10T02:16:37;101125.75;;;6.80;100.00
72055;BME280;59936;51.490;5.436;2022-10-10T02:17:38;101122.19;;;6.84;100.00
72055;BME280;59936;51.490;5.436;2022-10-10T02:18:38;101125.63;;;6.86;100.00
72055;BME280;59936;51.490;5.436;2022-10-10T02:19:37;101127.31;;;6.87;100.00
72055;BME280;59936;51.490;5.436;2022-10-10T02:20:43;101122.13;;;6.87;100.00
72055;BME280;59936;51.490;5.436;2022-10-10T02:21:42;101116.69;;;6.98;100.00
72055;BME280;59936;51.490;5.436;2022-10-10T02:22:44;101111.41;;;7.03;100.00
72055;BME280;59936;51.490;5.436;2022-10-10T02:23:45;101114.91;;;7.02;100.00
72055;BME280;59936;51.490;5.436;2022-10-10T02:24:46;101115.69;;;7.04;100.00
72055;BME280;59936;51.490;5.436;2022-10-10T02:25:50;101113.19;;;7.01;100.00
72055;BME280;59936;51.490;5.436;2022-10-10T02:27:07;101108.00;;;7.01;100.00
72055;BME280;59936;51.490;5.436;2022-10-10T02:28:17;101115.72;;;7.02;100.00
72055;BME280;59936;51.490;5.436;2022-10-10T02:29:37;101105.41;;;7.01;100.00
72055;BME280;59936;51.490;5.436;2022-10-10T02:30:42;101100.91;;;7.09;100.00
72055;BME280;59936;51.490;5.436;2022-10-10T02:31:49;101108.75;;;7.06;100.00
72055;BME280;59936;51.490;5.436;2022-10-10T02:33:00;101114.00;;;7.03;100.00
72055;BME280;59936;51.490;5.436;2022-10-10T02:34:14;101102.75;;;7.02;100.00
72055;BME280;59936;51.490;5.436;2022-10-10T02:35:19;101101.81;;;7.06;100.00
72055;BME280;59936;51.490;5.436;2022-10-10T02:36:22;101103.56;;;7.06;100.00
72055;BME280;59936;51.490;5.436;2022-10-10T02:37:24;101111.41;;;7.03;100.00
72055;BME280;59936;51.490;5.436;2022-10-10T02:38:24;101095.84;;;7.03;100.00
72055;BME280;59936;51.490;5.436;2022-10-10T02:39:28;101092.34;;;7.04;100.00
72055;BME280;59936;51.490;5.436;2022-10-10T02:40:30;101100.91;;;7.09;100.00
72055;BME280;59936;51.490;5.436;2022-10-10T02:41:30;101099.75;;;7.19;100.00
72055;BME280;59936;51.490;5.436;2022-10-10T02:42:31;101096.56;;;7.08;100.00
72055;BME280;59936;51.490;5.436;2022-10-10T02:43:33;101092.28;;;7.07;100.00
72055;BME280;59936;51.490;5.436;2022-10-10T02:44:32;101088.94;;;7.02;100.00
72055;BME280;59936;51.490;5.436;2022-10-10T02:45:30;101093.09;;;7.09;100.00
72055;BME280;59936;51.490;5.436;2022-10-10T02:46:29;101085.38;;;7.06;100.00
72055;BME280;59936;51.490;5.436;2022-10-10T02:47:27;101092.28;;;7.07;100.00
72055;BME280;59936;51.490;5.436;2022-10-10T02:48:24;101093.09;;;7.09;100.00
72055;BME280;59936;51.490;5.436;2022-10-10T02:49:29;101096.69;;;7.03;100.00
72055;BME280;59936;51.490;5.436;2022-10-10T02:50:30;101087.78;;;7.14;100.00
72055;BME280;59936;51.490;5.436;2022-10-10T02:51:28;101092.28;;;7.07;100.00
72055;BME280;59936;51.490;5.436;2022-10-10T02:52:25;101092.19;;;7.12;100.00
72055;BME280;59936;51.490;5.436;2022-10-10T02:53:22;101081.91;;;7.07;100.00
72055;BME280;59936;51.490;5.436;2022-10-10T02:54:20;101093.22;;;7.04;100.00
72055;BME280;59936;51.490;5.436;2022-10-10T02:55:17;101090.59;;;7.06;100.00
72055;BME280;59936;51.490;5.436;2022-10-10T02:56:14;101091.16;;;7.19;100.00
72055;BME280;59936;51.490;5.436;2022-10-10T02:57:12;101086.94;;;7.13;100.00
72055;BME280;59936;51.490;5.436;2022-10-10T02:58:10;101089.50;;;7.15;100.00
72055;BME280;59936;51.490;5.436;2022-10-10T02:59:07;101088.66;;;7.14;100.00
72055;BME280;59936;51.490;5.436;2022-10-10T03:00:05;101085.22;;;7.12;100.00
72055;BME280;59936;51.490;5.436;2022-10-10T03:01:03;101079.19;;;7.12;100.00
72055;BME280;59936;51.490;5.436;2022-10-10T03:02:01;101078.34;;;7.11;100.00
72055;BME280;59936;51.490;5.436;2022-10-10T03:02:58;101083.53;;;7.11;100.00
72055;BME280;59936;51.490;5.436;2022-10-10T03:03:55;101074.03;;;7.10;100.00
72055;BME280;59936;51.490;5.436;2022-10-10T03:04:53;101074.00;;;7.12;100.00
72055;BME280;59936;51.490;5.436;2022-10-10T03:05:50;101076.59;;;7.12;100.00
72055;BME280;59936;51.490;5.436;2022-10-10T03:06:47;101075.63;;;7.16;100.00
72055;BME280;59936;51.490;5.436;2022-10-10T03:07:45;101079.78;;;7.23;100.00
72055;BME280;59936;51.490;5.436;2022-10-10T03:08:42;101074.41;;;7.31;100.00
72055;BME280;59936;51.490;5.436;2022-10-10T03:09:40;101074.47;;;7.28;100.00
72055;BME280;59936;51.490;5.436;2022-10-10T03:10:37;101069.38;;;7.25;100.00
72055;BME280;59936;51.490;5.436;2022-10-10T03:11:34;101067.66;;;7.24;100.00
72055;BME280;59936;51.490;5.436;2022-10-10T03:12:35;101071.06;;;7.26;100.00
72055;BME280;59936;51.490;5.436;2022-10-10T03:13:32;101066.78;;;7.25;100.00
72055;BME280;59936;51.490;5.436;2022-10-10T03:14:30;101067.66;;;7.24;100.00
72055;BME280;59936;51.490;5.436;2022-10-10T03:15:27;101072.72;;;7.28;100.00
72055;BME280;59936;51.490;5.436;2022-10-10T03:16:25;101066.59;;;7.31;100.00
72055;BME280;59936;51.490;5.436;2022-10-10T03:17:22;101065.03;;;7.25;100.00
72055;BME280;59936;51.490;5.436;2022-10-10T03:18:20;101063.31;;;7.24;100.00
72055;BME280;59936;51.490;5.436;2022-10-10T03:19:17;101064.25;;;7.21;100.00
72055;BME280;59936;51.490;5.436;2022-10-10T03:20:15;101061.63;;;7.23;100.00
72055;BME280;59936;51.490;5.436;2022-10-10T03:21:12;101057.25;;;7.24;100.00
72055;BME280;59936;51.490;5.436;2022-10-10T03:22:10;101070.22;;;7.25;100.00
72055;BME280;59936;51.490;5.436;2022-10-10T03:23:07;101064.09;;;7.28;100.00
72055;BME280;59936;51.490;5.436;2022-10-10T03:24:05;101059.72;;;7.30;100.00
72055;BME280;59936;51.490;5.436;2022-10-10T03:25:02;101064.84;;;7.33;100.00
72055;BME280;59936;51.490;5.436;2022-10-10T03:26:01;101069.22;;;7.31;100.00
72055;BME280;59936;51.490;5.436;2022-10-10T03:26:59;101066.50;;;7.36;100.00
72055;BME280;59936;51.490;5.436;2022-10-10T03:27:57;101062.28;;;7.31;100.00
72055;BME280;59936;51.490;5.436;2022-10-10T03:28:54;101063.19;;;7.30;100.00
72055;BME280;59936;51.490;5.436;2022-10-10T03:29:51;101068.31;;;7.32;100.00
72055;BME280;59936;51.490;5.436;2022-10-10T03:30:49;101058.53;;;7.42;100.00
72055;BME280;59936;51.490;5.436;2022-10-10T03:31:46;101060.22;;;7.44;100.00
72055;BME280;59936;51.490;5.436;2022-10-10T03:32:43;101065.53;;;7.40;100.00
72055;BME280;59936;51.490;5.436;2022-10-10T03:33:41;101060.34;;;7.40;100.00
72055;BME280;59936;51.490;5.436;2022-10-10T03:34:38;101062.97;;;7.38;100.00
72055;BME280;59936;51.490;5.436;2022-10-10T03:35:36;101064.81;;;7.34;100.00
72055;BME280;59936;51.490;5.436;2022-10-10T03:36:34;101064.84;;;7.33;100.00
72055;BME280;59936;51.490;5.436;2022-10-10T03:37:31;101069.13;;;7.34;100.00
72055;BME280;59936;51.490;5.436;2022-10-10T03:38:28;101061.34;;;7.34;100.00
72055;BME280;59936;51.490;5.436;2022-10-10T03:39:26;101063.19;;;7.30;100.00
72055;BME280;59936;51.490;5.436;2022-10-10T03:40:24;101064.09;;;7.28;100.00
72055;BME280;59936;51.490;5.436;2022-10-10T03:41:23;101075.44;;;7.24;100.00
72055;BME280;59936;51.490;5.436;2022-10-10T03:42:20;101069.44;;;7.21;100.00
72055;BME280;59936;51.490;5.436;2022-10-10T03:43:18;101075.59;;;7.17;100.00
72055;BME280;59936;51.490;5.436;2022-10-10T03:44:15;101067.81;;;7.17;100.00
72055;BME280;59936;51.490;5.436;2022-10-10T03:45:12;101078.97;;;7.21;100.00
72055;BME280;59936;51.490;5.436;2022-10-10T03:46:10;101076.19;;;7.29;100.00
72055;BME280;59936;51.490;5.436;2022-10-10T03:47:07;101071.75;;;7.32;100.00
72055;BME280;59936;51.490;5.436;2022-10-10T03:48:05;101069.34;;;7.26;100.00
72055;BME280;59936;51.490;5.436;2022-10-10T03:49:02;101072.78;;;7.27;100.00
72055;BME280;59936;51.490;5.436;2022-10-10T03:49:59;101071.06;;;7.26;100.00
72055;BME280;59936;51.490;5.436;2022-10-10T03:50:57;101066.81;;;7.23;100.00
72055;BME280;59936;51.490;5.436;2022-10-10T03:51:54;101072.84;;;7.24;100.00
72055;BME280;59936;51.490;5.436;2022-10-10T03:52:52;101064.25;;;7.21;100.00
72055;BME280;59936;51.490;5.436;2022-10-10T03:53:49;101069.50;;;7.18;100.00
72055;BME280;59936;51.490;5.436;2022-10-10T03:54:46;101073.91;;;7.16;100.00
72055;BME280;59936;51.490;5.436;2022-10-10T03:55:44;101068.72;;;7.16;100.00
72055;BME280;59936;51.490;5.436;2022-10-10T03:56:41;101072.16;;;7.17;100.00
72055;BME280;59936;51.490;5.436;2022-10-10T03:57:38;101065.16;;;7.20;100.00
72055;BME280;59936;51.490;5.436;2022-10-10T03:58:36;101075.59;;;7.17;100.00
72055;BME280;59936;51.490;5.436;2022-10-10T03:59:33;101074.75;;;7.17;100.00
72055;BME280;59936;51.490;5.436;2022-10-10T04:00:31;101067.78;;;7.19;100.00
72055;BME280;59936;51.490;5.436;2022-10-10T04:01:29;101069.50;;;7.18;100.00
72055;BME280;59936;51.490;5.436;2022-10-10T04:02:27;101064.25;;;7.21;100.00
72055;BME280;59936;51.490;5.436;2022-10-10T04:03:25;101063.38;;;7.21;100.00
72055;BME280;59936;51.490;5.436;2022-10-10T04:04:23;101069.59;;;7.15;100.00
72055;BME280;59936;51.490;5.436;2022-10-10T04:05:20;101070.47;;;7.14;100.00
72055;BME280;59936;51.490;5.436;2022-10-10T04:06:18;101067.03;;;7.14;100.00
72055;BME280;59936;51.490;5.436;2022-10-10T04:07:15;101071.22;;;7.19;100.00
72055;BME280;59936;51.490;5.436;2022-10-10T04:08:13;101068.63;;;7.19;100.00
72055;BME280;59936;51.490;5.436;2022-10-10T04:09:10;101062.56;;;7.20;100.00
72055;BME280;59936;51.490;5.436;2022-10-10T04:10:08;101065.94;;;7.22;100.00
72055;BME280;59936;51.490;5.436;2022-10-10T04:11:06;101062.56;;;7.20;100.00
72055;BME280;59936;51.490;5.436;2022-10-10T04:12:03;101067.78;;;7.19;100.00
72055;BME280;59936;51.490;5.436;2022-10-10T04:13:01;101067.00;;;7.15;100.00
72055;BME280;59936;51.490;5.436;2022-10-10T04:13:58;101072.19;;;7.15;100.00
72055;BME280;59936;51.490;5.436;2022-10-10T04:14:55;101062.75;;;7.11;100.00
72055;BME280;59936;51.490;5.436;2022-10-10T04:15:54;101061.88;;;7.12;100.00
72055;BME280;59936;51.490;5.436;2022-10-10T04:16:53;101065.41;;;7.09;100.00
72055;BME280;59936;51.490;5.436;2022-10-10T04:17:50;101068.91;;;7.07;100.00
72055;BME280;59936;51.490;5.436;2022-10-10T04:18:47;101066.34;;;7.05;100.00
72055;BME280;59936;51.490;5.436;2022-10-10T04:19:45;101068.19;;;7.02;100.00
72055;BME280;59936;51.490;5.436;2022-10-10T04:20:42;101063.09;;;6.97;100.00
72055;BME280;59936;51.490;5.436;2022-10-10T04:21:40;101056.19;;;6.98;100.00
72055;BME280;59936;51.490;5.436;2022-10-10T04:22:37;101063.97;;;6.98;100.00
72055;BME280;59936;51.490;5.436;2022-10-10T04:23:35;101064.84;;;6.97;100.00
72055;BME280;59936;51.490;5.436;2022-10-10T04:24:33;101064.94;;;6.93;100.00
72055;BME280;59936;51.490;5.436;2022-10-10T04:25:30;101065.84;;;6.91;100.00
72055;BME280;59936;51.490;5.436;2022-10-10T04:26:28;101063.28;;;6.89;100.00
72055;BME280;59936;51.490;5.436;2022-10-10T04:27:25;101068.47;;;6.89;100.00
72055;BME280;59936;51.490;5.436;2022-10-10T04:28:23;101060.72;;;6.88;100.00
72055;BME280;59936;51.490;5.436;2022-10-10T04:29:20;101064.28;;;6.83;100.00
72055;BME280;59936;51.490;5.436;2022-10-10T04:30:18;101069.50;;;6.82;100.00
72055;BME280;59936;51.490;5.436;2022-10-10T04:31:16;101066.06;;;6.81;100.00
72055;BME280;59936;51.490;5.436;2022-10-10T04:32:13;101063.50;;;6.80;100.00
72055;BME280;59936;51.490;5.436;2022-10-10T04:33:11;101059.94;;;6.84;100.00
72055;BME280;59936;51.490;5.436;2022-10-10T04:34:08;101063.50;;;6.80;100.00
72055;BME280;59936;51.490;5.436;2022-10-10T04:35:06;101064.34;;;6.80;100.00
72055;BME280;59936;51.490;5.436;2022-10-10T04:36:04;101058.22;;;6.83;100.00
72055;BME280;59936;51.490;5.436;2022-10-10T04:37:01;101066.84;;;6.85;100.00
72055;BME280;59936;51.490;5.436;2022-10-10T04:37:59;101064.28;;;6.83;100.00
72055;BME280;59936;51.490;5.436;2022-10-10T04:38:56;101066.84;;;6.85;100.00
72055;BME280;59936;51.490;5.436;2022-10-10T04:39:55;101066.03;;;6.83;100.00
72055;BME280;59936;51.490;5.436;2022-10-10T04:40:52;101063.44;;;6.83;100.00
72055;BME280;59936;51.490;5.436;2022-10-10T04:41:50;101067.75;;;6.82;100.00
72055;BME280;59936;51.490;5.436;2022-10-10T04:42:47;101062.66;;;6.79;100.00
72055;BME280;59936;51.490;5.436;2022-10-10T04:43:45;101054.97;;;6.75;100.00
72055;BME280;59936;51.490;5.436;2022-10-10T04:44:42;101063.59;;;6.77;100.00
72055;BME280;59936;51.490;5.436;2022-10-10T04:45:39;101065.41;;;6.72;100.00
72055;BME280;59936;51.490;5.436;2022-10-10T04:46:37;101064.59;;;6.69;100.00
72055;BME280;59936;51.490;5.436;2022-10-10T04:47:34;101060.38;;;6.65;100.00
72055;BME280;59936;51.490;5.436;2022-10-10T04:48:32;101062.13;;;6.63;100.00
72055;BME280;59936;51.490;5.436;2022-10-10T04:49:29;101063.78;;;6.67;100.00
72055;BME280;59936;51.490;5.436;2022-10-10T04:50:26;101061.28;;;6.63;100.00
72055;BME280;59936;51.490;5.436;2022-10-10T04:51:24;101067.47;;;6.57;100.00
72055;BME280;59936;51.490;5.436;2022-10-10T04:52:22;101067.47;;;6.57;100.00
72055;BME280;59936;51.490;5.436;2022-10-10T04:53:19;101065.81;;;6.53;100.00
72055;BME280;59936;51.490;5.436;2022-10-10T04:54:17;101070.09;;;6.55;100.00
72055;BME280;59936;51.490;5.436;2022-10-10T04:55:15;101062.28;;;6.57;100.00
72055;BME280;59936;51.490;5.436;2022-10-10T04:56:12;101065.75;;;6.56;100.00
72055;BME280;59936;51.490;5.436;2022-10-10T04:57:10;101060.63;;;6.53;100.00
72055;BME280;59936;51.490;5.436;2022-10-10T04:58:07;101058.13;;;6.50;100.00
72055;BME280;59936;51.490;5.436;2022-10-10T04:59:04;101067.59;;;6.51;100.00
72055;BME280;59936;51.490;5.436;2022-10-10T05:00:04;101067.50;;;6.55;100.00
72055;BME280;59936;51.490;5.436;2022-10-10T05:01:02;101062.28;;;6.57;100.00
72055;BME280;59936;51.490;5.436;2022-10-10T05:02:00;101066.59;;;6.58;100.00
72055;BME280;59936;51.490;5.436;2022-10-10T05:02:57;101058.75;;;6.61;100.00
72055;BME280;59936;51.490;5.436;2022-10-10T05:03:54;101064.00;;;6.58;100.00
72055;BME280;59936;51.490;5.436;2022-10-10T05:04:52;101064.06;;;6.55;100.00
72055;BME280;59936;51.490;5.436;2022-10-10T05:05:49;101061.53;;;6.52;100.00
72055;BME280;59936;51.490;5.436;2022-10-10T05:06:47;101062.41;;;6.51;100.00
72055;BME280;59936;51.490;5.436;2022-10-10T05:07:44;101060.72;;;6.50;100.00
72055;BME280;59936;51.490;5.436;2022-10-10T05:08:41;101054.50;;;6.57;100.00
72055;BME280;59936;51.490;5.436;2022-10-10T05:09:39;101053.75;;;6.52;100.00
72055;BME280;59936;51.490;5.436;2022-10-10T05:10:37;101060.63;;;6.53;100.00
72055;BME280;59936;51.490;5.436;2022-10-10T05:11:35;101051.91;;;6.57;100.00
72055;BME280;59936;51.490;5.436;2022-10-10T05:12:33;101050.19;;;6.56;100.00
72055;BME280;59936;51.490;5.436;2022-10-10T05:13:30;101057.16;;;6.54;100.00
72055;BME280;59936;51.490;5.436;2022-10-10T05:14:28;101056.31;;;6.53;100.00
72055;BME280;59936;51.490;5.436;2022-10-10T05:15:25;101052.03;;;6.51;100.00
72055;BME280;59936;51.490;5.436;2022-10-10T05:16:23;101058.88;;;6.55;100.00
72055;BME280;59936;51.490;5.436;2022-10-10T05:17:20;101051.13;;;6.53;100.00
72055;BME280;59936;51.490;5.436;2022-10-10T05:18:19;101048.50;;;6.55;100.00
72055;BME280;59936;51.490;5.436;2022-10-10T05:19:17;101045.00;;;6.56;100.00
72055;BME280;59936;51.490;5.436;2022-10-10T05:20:15;101053.47;;;6.64;100.00
72055;BME280;59936;51.490;5.436;2022-10-10T05:21:12;101050.00;;;6.65;100.00
72055;BME280;59936;51.490;5.436;2022-10-10T05:22:09;101048.38;;;6.61;100.00
72055;BME280;59936;51.490;5.436;2022-10-10T05:23:07;101051.03;;;6.58;100.00
72055;BME280;59936;51.490;5.436;2022-10-10T05:24:04;101052.72;;;6.59;100.00
72055;BME280;59936;51.490;5.436;2022-10-10T05:25:02;101053.47;;;6.64;100.00
72055;BME280;59936;51.490;5.436;2022-10-10T05:25:59;101061.44;;;6.56;100.00
72055;BME280;59936;51.490;5.436;2022-10-10T05:26:56;101054.34;;;6.63;100.00
72055;BME280;59936;51.490;5.436;2022-10-10T05:27:54;101044.66;;;6.72;100.00
72055;BME280;59936;51.490;5.436;2022-10-10T05:28:51;101054.13;;;6.73;100.00
72055;BME280;59936;51.490;5.436;2022-10-10T05:29:49;101057.69;;;6.68;100.00
72055;BME280;59936;51.490;5.436;2022-10-10T05:30:46;101052.38;;;6.75;100.00
72055;BME280;59936;51.490;5.436;2022-10-10T05:31:44;101053.34;;;6.70;100.00
72055;BME280;59936;51.490;5.436;2022-10-10T05:32:41;101057.53;;;6.76;100.00
72055;BME280;59936;51.490;5.436;2022-10-10T05:33:39;101053.41;;;6.67;100.00
72055;BME280;59936;51.490;5.436;2022-10-10T05:34:37;101060.38;;;6.65;100.00
72055;BME280;59936;51.490;5.436;2022-10-10T05:35:35;101051.75;;;6.63;100.00
72055;BME280;59936;51.490;5.436;2022-10-10T05:36:33;101055.97;;;6.69;100.00
72055;BME280;59936;51.490;5.436;2022-10-10T05:37:31;101050.78;;;6.69;100.00
72055;BME280;59936;51.490;5.436;2022-10-10T05:38:28;101062.94;;;6.67;100.00